Time;durP1;ratioP1;P1;durP2;ratioP2;P2;SDS_P1;SDS_P2;PMS_P1;PMS_P2;Temp;Humidity;BMP_temperature;BMP_pressure;BME280_temperature;BME280_humidity;BME280_pressure;Samples;Min_cycle;Max_cycle;Signal;HPM_P1;HPM_P2
2022/06/05 00:00:58;;;;;;;0.50;0.40;;;;;;;19.92;100.00;95569.00;5094381;28;20464;-61
2022/06/05 00:03:35;;;;;;;4.93;0.60;;;;;;;19.92;100.00;95562.84;5094340;28;20455;-61
2022/06/05 00:06:13;;;;;;;0.40;0.30;;;;;;;19.65;100.00;95515.63;5093957;28;20489;-61
2022/06/05 00:08:53;;;;;;;0.67;0.40;;;;;;;19.97;100.00;95558.06;5094127;28;20420;-61
2022/06/05 00:11:23;;;;;;;0.40;0.20;;;;;;;20.08;100.00;95561.22;5094307;28;20431;-61
2022/06/05 00:13:55;;;;;;;1.33;0.30;;;;;;;20.12;100.00;95556.75;5094135;28;20443;-61
2022/06/05 00:16:26;;;;;;;0.40;0.30;;;;;;;19.86;100.00;95511.09;5094531;28;20420;-61
2022/06/05 00:18:56;;;;;;;0.60;0.60;;;;;;;20.10;100.00;95557.09;5094120;28;20780;-61
2022/06/05 00:21:24;;;;;;;0.40;0.30;;;;;;;20.13;100.00;95542.97;5094630;28;20432;-61
2022/06/05 00:23:53;;;;;;;0.40;0.30;;;;;;;19.89;100.00;95526.59;5094414;28;20467;-61
2022/06/05 00:26:27;;;;;;;0.60;0.30;;;;;;;19.95;100.00;95538.78;5093964;28;20889;-61
2022/06/05 00:29:04;;;;;;;0.40;0.30;;;;;;;20.01;100.00;95536.72;5093972;28;20790;-61
2022/06/05 00:31:40;;;;;;;0.60;0.40;;;;;;;20.00;100.00;95540.50;5094161;28;20514;-61
2022/06/05 00:34:10;;;;;;;0.50;0.47;;;;;;;19.94;100.00;95523.75;5094154;28;20415;-61
2022/06/05 00:37:00;;;;;;;0.50;0.30;;;;;;;19.95;100.00;95536.09;5093783;28;20984;-61
2022/06/05 00:39:43;;;;;;;0.40;0.20;;;;;;;19.97;100.00;95543.81;5093667;28;20446;-61
2022/06/05 00:42:16;;;;;;;0.57;0.57;;;;;;;19.95;100.00;95538.00;5093549;28;20462;-61
2022/06/05 00:44:48;;;;;;;7.70;0.50;;;;;;;19.83;100.00;95538.69;5093877;28;20420;-61
2022/06/05 00:47:20;;;;;;;0.70;0.70;;;;;;;19.83;100.00;95530.59;5093573;28;20468;-61
2022/06/05 00:49:54;;;;;;;0.57;0.40;;;;;;;19.96;100.00;95542.28;5093777;28;20460;-62
2022/06/05 00:52:25;;;;;;;0.50;0.40;;;;;;;20.00;100.00;95545.88;5093487;28;20485;-61
2022/06/05 00:54:54;;;;;;;0.73;0.73;;;;;;;19.86;100.00;95548.00;5093500;28;20527;-61
2022/06/05 00:57:23;;;;;;;0.50;0.40;;;;;;;19.68;100.00;95536.50;5093145;28;20459;-61
2022/06/05 00:59:52;;;;;;;0.47;0.43;;;;;;;19.45;100.00;95540.50;5093775;28;20429;-61
2022/06/05 01:02:21;;;;;;;2.03;1.00;;;;;;;19.19;100.00;95550.47;5093455;28;20508;-59
2022/06/05 01:04:52;;;;;;;1.00;0.40;;;;;;;19.12;100.00;95536.72;5093259;28;20915;-61
2022/06/05 01:07:22;;;;;;;0.80;0.30;;;;;;;19.39;100.00;95553.31;5093507;28;20809;-60
2022/06/05 01:09:52;;;;;;;0.50;0.40;;;;;;;19.36;100.00;95551.25;5093121;28;20860;-60
2022/06/05 01:12:33;;;;;;;0.40;0.30;;;;;;;19.03;100.00;95497.22;5093049;28;20456;-60
2022/06/05 01:15:13;;;;;;;0.50;0.30;;;;;;;19.43;100.00;95551.56;5093038;28;20548;-61
2022/06/05 01:17:47;;;;;;;0.50;0.37;;;;;;;19.31;100.00;95540.66;5092893;28;20436;-61
2022/06/05 01:20:35;;;;;;;0.50;0.40;;;;;;;19.43;100.00;95545.44;5093032;28;20450;-61
2022/06/05 01:23:31;;;;;;;0.40;0.30;;;;;;;19.52;100.00;95538.13;5092730;28;20523;-60
2022/06/05 01:26:14;;;;;;;0.40;0.30;;;;;;;19.46;100.00;95545.56;5091943;28;20440;-61
2022/06/05 01:28:50;;;;;;;0.50;0.40;;;;;;;19.40;100.00;95548.75;5092134;28;20489;-61
2022/06/05 01:31:24;;;;;;;0.40;0.30;;;;;;;19.27;100.00;95542.41;5092347;28;20521;-61
2022/06/05 01:33:57;;;;;;;0.50;0.40;;;;;;;19.11;100.00;95556.63;5092800;28;20985;-61
2022/06/05 01:36:33;;;;;;;0.43;0.27;;;;;;;19.12;100.00;95553.66;5092641;28;20563;-64
2022/06/05 01:39:04;;;;;;;0.40;0.30;;;;;;;19.27;100.00;95563.13;5092688;28;20432;-61
2022/06/05 01:41:42;;;;;;;0.47;0.33;;;;;;;19.30;100.00;95536.38;5091658;28;20432;-61
2022/06/05 01:44:15;;;;;;;0.40;0.30;;;;;;;19.41;100.00;95555.69;5092625;28;20436;-61
2022/06/05 01:46:43;;;;;;;0.80;0.37;;;;;;;19.49;100.00;95558.38;5094285;28;20436;-62
2022/06/05 01:49:17;;;;;;;0.80;0.60;;;;;;;18.76;100.00;95446.53;5093543;28;20455;-61
2022/06/05 01:51:53;;;;;;;0.50;0.33;;;;;;;19.30;100.00;95532.91;5092767;28;20424;-61
2022/06/05 01:54:31;;;;;;;0.70;0.70;;;;;;;19.52;100.00;95549.66;5092094;28;20467;-61
2022/06/05 01:57:06;;;;;;;0.50;0.30;;;;;;;19.58;100.00;95553.00;5091612;28;20528;-61
2022/06/05 01:59:39;;;;;;;0.50;0.43;;;;;;;19.59;100.00;95554.56;5091942;28;20841;-61
2022/06/05 02:02:11;;;;;;;0.60;0.60;;;;;;;19.58;100.00;95540.31;5091608;28;20456;-61
2022/06/05 02:04:43;;;;;;;0.47;0.30;;;;;;;19.60;100.00;95543.50;5091267;28;20855;-61
2022/06/05 02:07:16;;;;;;;0.50;0.30;;;;;;;19.63;100.00;95547.44;5091419;28;20512;-61
2022/06/05 02:09:49;;;;;;;0.50;0.40;;;;;;;19.53;100.00;95542.41;5090428;28;20463;-61
2022/06/05 02:12:21;;;;;;;0.70;0.40;;;;;;;19.55;100.00;95535.59;5091462;28;20564;-61
2022/06/05 02:14:49;;;;;;;0.50;0.50;;;;;;;19.42;100.00;95515.06;5091570;28;20513;-61
2022/06/05 02:17:18;;;;;;;0.50;0.40;;;;;;;19.59;100.00;95543.78;5091350;28;20503;-61
2022/06/05 02:19:46;;;;;;;0.90;0.60;;;;;;;19.47;100.00;95540.97;5092014;28;20428;-61
2022/06/05 02:22:19;;;;;;;0.40;0.30;;;;;;;19.48;100.00;95546.03;5091082;28;20965;-61
2022/06/05 02:24:48;;;;;;;0.60;0.53;;;;;;;19.32;100.00;95530.69;5091986;28;20421;-61
2022/06/05 02:27:24;;;;;;;0.40;0.20;;;;;;;19.46;100.00;95542.88;5091153;28;20472;-61
2022/06/05 02:29:54;;;;;;;1.03;0.30;;;;;;;19.37;100.00;95535.94;5091299;28;20519;-61
2022/06/05 02:32:34;;;;;;;0.40;0.30;;;;;;;19.41;100.00;95518.06;5091102;28;20424;-61
2022/06/05 02:35:16;;;;;;;0.40;0.30;;;;;;;19.26;100.00;95492.44;5091423;28;20639;-61
2022/06/05 02:37:57;;;;;;;0.47;0.40;;;;;;;19.23;100.00;95543.34;5091494;28;20519;-61
2022/06/05 02:40:34;;;;;;;0.80;0.50;;;;;;;18.51;100.00;95560.06;5091558;28;20424;-61
2022/06/05 02:43:12;;;;;;;2.50;1.03;;;;;;;18.36;100.00;95555.13;5091249;28;20428;-61
2022/06/05 02:45:52;;;;;;;0.60;0.57;;;;;;;18.50;100.00;95550.44;5091481;28;20424;-61
2022/06/05 02:48:28;;;;;;;0.47;0.37;;;;;;;18.71;100.00;95546.03;5091380;28;20489;-61
2022/06/05 02:51:02;;;;;;;0.87;0.77;;;;;;;18.82;100.00;95552.69;5091620;28;20511;-61
2022/06/05 02:53:46;;;;;;;0.50;0.40;;;;;;;18.82;100.00;95547.31;5091087;28;20481;-61
2022/06/05 02:56:15;;;;;;;0.40;0.20;;;;;;;19.00;100.00;95540.84;5091220;28;20507;-61
2022/06/05 02:58:45;;;;;;;0.60;0.53;;;;;;;19.10;100.00;95536.25;5091329;28;20957;-61
2022/06/05 03:04:00;;;;;;;0.40;0.30;;;;;;;18.94;100.00;95539.44;5091374;28;20436;-61
2022/06/05 03:06:29;;;;;;;0.80;0.80;;;;;;;19.00;100.00;95548.09;5091424;28;20431;-61
2022/06/05 03:08:58;;;;;;;0.50;0.37;;;;;;;18.95;100.00;95551.72;5091201;28;20475;-61
2022/06/05 03:11:26;;;;;;;0.40;0.30;;;;;;;18.94;100.00;95557.44;5091161;28;20523;-61
2022/06/05 03:13:57;;;;;;;0.40;0.30;;;;;;;18.89;100.00;95549.53;5091134;28;20464;-61
2022/06/05 03:16:25;;;;;;;0.63;0.63;;;;;;;18.89;100.00;95544.97;5090708;28;20544;-61
2022/06/05 03:18:54;;;;;;;0.50;0.43;;;;;;;18.87;100.00;95549.84;5091245;28;20444;-62
2022/06/05 03:21:22;;;;;;;0.40;0.20;;;;;;;18.91;100.00;95542.75;5095015;28;20515;-61
2022/06/05 03:23:50;;;;;;;0.60;0.40;;;;;;;18.87;100.00;95549.84;5094941;28;20935;-61
2022/06/05 03:26:19;;;;;;;0.40;0.20;;;;;;;18.87;100.00;95533.72;5094959;28;20432;-61
2022/06/05 03:28:47;;;;;;;0.47;0.40;;;;;;;18.21;100.00;95398.06;5094907;28;20412;-61
2022/06/05 03:31:17;;;;;;;0.40;0.20;;;;;;;18.96;100.00;95550.63;5094686;28;21013;-61
2022/06/05 03:33:45;;;;;;;0.60;0.40;;;;;;;19.03;100.00;95556.31;5094841;28;20424;-61
2022/06/05 03:36:17;;;;;;;0.57;0.40;;;;;;;19.09;100.00;95550.78;5094596;28;20499;-61
2022/06/05 03:38:46;;;;;;;0.40;0.30;;;;;;;19.18;100.00;95551.56;5094693;28;20427;-61
2022/06/05 03:41:15;;;;;;;2.20;0.50;;;;;;;19.27;100.00;95552.38;5094823;28;20433;-61
2022/06/05 03:43:44;;;;;;;0.40;0.30;;;;;;;19.18;100.00;95544.31;5094826;28;20506;-61
2022/06/05 03:46:15;;;;;;;0.40;0.30;;;;;;;19.18;100.00;95535.44;5094806;28;20433;-61
2022/06/05 03:48:45;;;;;;;0.57;0.43;;;;;;;19.34;100.00;95531.97;5095061;28;20533;-60
2022/06/05 03:51:17;;;;;;;2.30;0.87;;;;;;;19.46;100.00;95529.44;5094827;28;20506;-61
2022/06/05 03:53:46;;;;;;;2.23;0.43;;;;;;;19.05;100.00;95459.28;5094890;28;20436;-61
2022/06/05 03:56:17;;;;;;;0.40;0.37;;;;;;;19.41;100.00;95510.78;5094674;28;20464;-61
2022/06/05 03:58:45;;;;;;;0.57;0.53;;;;;;;19.48;100.00;95521.06;5096143;28;20432;-61
2022/06/05 04:01:16;;;;;;;0.77;0.40;;;;;;;19.41;100.00;95512.69;5095211;28;20461;-61
2022/06/05 04:03:46;;;;;;;0.50;0.40;;;;;;;19.45;100.00;95502.88;5094475;28;20489;-60
2022/06/05 04:06:19;;;;;;;0.80;0.73;;;;;;;19.47;100.00;95479.16;5094232;28;20432;-61
2022/06/05 04:08:48;;;;;;;8.83;0.53;;;;;;;19.73;100.00;95511.34;5094601;28;20439;-60
2022/06/05 04:11:19;;;;;;;0.63;0.60;;;;;;;19.92;100.00;95517.91;5094172;28;20482;-61
2022/06/05 04:13:48;;;;;;;0.50;0.40;;;;;;;20.04;100.00;95519.91;5094047;28;20482;-60
2022/06/05 04:16:20;;;;;;;0.87;0.80;;;;;;;20.11;100.00;95502.13;5094205;28;20516;-60
2022/06/05 04:18:50;;;;;;;0.60;0.50;;;;;;;20.18;100.00;95515.09;5094356;28;20467;-60
2022/06/05 04:21:21;;;;;;;0.67;0.67;;;;;;;20.24;100.00;95511.91;5094300;28;20507;-60
2022/06/05 04:23:50;;;;;;;0.43;0.40;;;;;;;20.27;100.00;95513.16;5094208;28;20424;-60
2022/06/05 04:26:21;;;;;;;0.50;0.50;;;;;;;20.30;100.00;95519.78;5094028;28;20919;-60
2022/06/05 04:28:52;;;;;;;1.03;0.73;;;;;;;20.06;100.00;95509.63;5093858;28;20940;-60
2022/06/05 04:31:23;;;;;;;0.73;0.73;;;;;;;20.14;100.00;95511.44;5093100;28;20456;-60
2022/06/05 04:33:57;;;;;;;0.50;0.30;;;;;;;19.98;100.00;95516.63;5094344;28;20511;-60
2022/06/05 04:36:25;;;;;;;0.93;0.93;;;;;;;19.27;100.00;95477.13;5093722;28;20769;-59
2022/06/05 04:38:54;;;;;;;0.50;0.30;;;;;;;19.42;100.00;95522.34;5093819;28;20432;-59
2022/06/05 04:41:24;;;;;;;1.13;0.40;;;;;;;19.60;100.00;95519.28;5093804;28;20428;-59
2022/06/05 04:43:55;;;;;;;2.10;0.80;;;;;;;18.84;100.00;95429.63;5093824;28;21079;-59
2022/06/05 04:46:26;;;;;;;0.50;0.40;;;;;;;19.64;100.00;95522.91;5093904;28;20431;-59
2022/06/05 04:48:56;;;;;;;0.67;0.67;;;;;;;19.87;100.00;95517.28;5093538;28;20424;-59
2022/06/05 04:51:25;;;;;;;0.50;0.40;;;;;;;19.42;100.00;95515.06;5093529;28;20511;-59
2022/06/05 04:53:56;;;;;;;5.57;0.83;;;;;;;19.54;100.00;95519.75;5093381;28;20954;-59
2022/06/05 04:56:27;;;;;;;0.73;0.73;;;;;;;19.69;100.00;95519.25;5093382;28;20471;-58
2022/06/05 04:58:57;;;;;;;0.50;0.50;;;;;;;19.31;100.00;95518.34;5093063;28;20452;-59
2022/06/05 05:01:27;;;;;;;0.90;0.63;;;;;;;19.54;100.00;95515.19;5093554;28;20522;-58
2022/06/05 05:03:59;;;;;;;0.63;0.63;;;;;;;19.52;100.00;95485.16;5093394;28;20433;-58
2022/06/05 05:06:29;;;;;;;0.63;0.63;;;;;;;20.01;100.00;95517.88;5093110;28;20511;-57
2022/06/05 05:08:58;;;;;;;1.27;1.27;;;;;;;19.93;100.00;95505.25;5093593;28;20460;-57
2022/06/05 05:11:27;;;;;;;1.47;0.73;;;;;;;20.61;100.00;95501.41;5093376;28;20463;-57
2022/06/05 05:13:57;;;;;;;0.40;0.30;;;;;;;20.51;100.00;95513.34;5093131;28;20490;-57
2022/06/05 05:16:27;;;;;;;0.40;0.30;;;;;;;20.66;100.00;95506.59;5092939;28;20432;-57
2022/06/05 05:18:58;;;;;;;0.67;0.60;;;;;;;20.78;100.00;95507.44;5092767;28;20997;-57
2022/06/05 05:21:27;;;;;;;0.40;0.30;;;;;;;20.89;100.00;95502.44;5092489;28;20511;-57
2022/06/05 05:23:57;;;;;;;0.60;0.40;;;;;;;20.59;100.00;95495.56;5092004;28;20934;-57
2022/06/05 05:26:28;;;;;;;4.67;0.70;;;;;;;20.25;100.00;95507.31;5092732;28;20455;-57
2022/06/05 05:28:57;;;;;;;0.60;0.40;;;;;;;20.44;100.00;95510.38;5092834;28;20838;-57
2022/06/05 05:31:29;;;;;;;17.40;0.87;;;;;;;20.45;100.00;95503.06;5072523;28;20446;-57
2022/06/05 05:33:59;;;;;;;0.50;0.40;;;;;;;20.08;100.00;95416.69;5072093;28;20464;-57
2022/06/05 05:36:29;;;;;;;0.60;0.40;;;;;;;21.20;100.00;95502.06;5072293;28;20417;-57
2022/06/05 05:44:32;;;;;;;6.73;1.17;;;;;;;21.65;100.00;95508.25;5071567;28;20520;-57
2022/06/05 05:47:01;;;;;;;0.50;0.40;;;;;;;21.70;100.00;95518.03;5071869;28;20891;-57
2022/06/05 05:49:30;;;;;;;0.60;0.50;;;;;;;22.12;100.00;95504.06;5072268;28;20513;-57
2022/06/05 05:51:59;;;;;;;1.00;1.00;;;;;;;22.04;100.00;95501.44;5072144;28;20479;-57
2022/06/05 05:54:27;;;;;;;0.60;0.40;;;;;;;22.42;100.00;95498.41;5072048;28;20783;-57
2022/06/05 05:56:55;;;;;;;0.43;0.37;;;;;;;22.83;100.00;95494.63;5071920;28;20942;-56
2022/06/05 05:59:24;;;;;;;0.60;0.60;;;;;;;23.10;100.00;95494.66;5072038;28;21021;-56
2022/06/05 06:01:52;;;;;;;0.60;0.60;;;;;;;22.82;100.00;95498.50;5072309;28;20461;-57
2022/06/05 06:04:20;;;;;;;0.60;0.40;;;;;;;22.84;100.00;95498.94;5072224;28;20921;-62
2022/06/05 06:06:50;;;;;;;0.80;0.50;;;;;;;23.33;100.00;95492.97;5071905;28;20421;-62
2022/06/05 06:09:19;;;;;;;0.90;0.60;;;;;;;22.94;100.00;95442.47;5071693;28;20982;-62
2022/06/05 06:11:48;;;;;;;0.70;0.70;;;;;;;23.02;100.00;95479.38;5073270;28;20845;-61
2022/06/05 06:14:17;;;;;;;0.80;0.80;;;;;;;23.31;100.00;95480.94;5071746;28;20529;-61
2022/06/05 06:16:45;;;;;;;1.23;0.70;;;;;;;23.63;100.00;95477.19;5071567;28;20479;-61
2022/06/05 06:19:15;;;;;;;1.30;1.20;;;;;;;23.78;100.00;95481.03;5071529;28;20516;-61
2022/06/05 06:21:43;;;;;;;0.67;0.50;;;;;;;24.37;100.00;95475.50;5071724;28;20440;-61
2022/06/05 06:24:14;;;;;;;0.60;0.50;;;;;;;23.97;100.00;95473.00;5071355;28;20524;-61
2022/06/05 06:26:48;;;;;;;1.37;1.27;;;;;;;23.57;100.00;95456.13;5072173;28;20465;-62
2022/06/05 06:29:17;;;;;;;0.83;0.40;;;;;;;23.18;100.00;95463.97;5074166;28;20501;-61
2022/06/05 06:31:46;;;;;;;4.20;0.53;;;;;;;24.23;100.00;95467.88;5092251;28;20525;-62
2022/06/05 06:34:16;;;;;;;0.60;0.60;;;;;;;23.91;100.00;95471.69;5091569;28;20429;-62
2022/06/05 06:36:54;;;;;;;0.57;0.57;;;;;;;24.19;100.00;95463.47;5093260;28;20881;-61
2022/06/05 06:39:25;;;;;;;1.57;1.03;;;;;;;24.45;100.00;95466.41;5089632;28;20507;-62
2022/06/05 06:41:54;;;;;;;0.97;0.97;;;;;;;24.52;100.00;95467.34;5088679;28;20432;-62
2022/06/05 06:44:23;;;;;;;0.80;0.80;;;;;;;24.71;100.00;95463.09;5089990;28;20473;-61
2022/06/05 06:46:55;;;;;;;0.70;0.63;;;;;;;24.75;100.00;95459.31;5090350;28;20539;-61
2022/06/05 06:49:27;;;;;;;0.80;0.70;;;;;;;24.65;100.00;95465.31;5089432;28;20906;-60
2022/06/05 06:51:56;;;;;;;1.13;1.03;;;;;;;24.55;100.00;95436.03;5090001;28;20918;-60
2022/06/05 06:54:27;;;;;;;0.60;0.60;;;;;;;25.27;100.00;95465.03;5091119;28;20416;-60
2022/06/05 06:56:55;;;;;;;1.20;0.70;;;;;;;25.68;100.00;95457.28;5095550;28;20434;-60
2022/06/05 06:59:27;;;;;;;1.00;1.00;;;;;;;26.36;100.00;95452.59;5095297;28;20493;-61
2022/06/05 07:01:56;;;;;;;0.50;0.50;;;;;;;26.35;100.00;95447.53;5095239;28;20431;-60
2022/06/05 07:04:25;;;;;;;0.50;0.50;;;;;;;26.68;100.00;95449.53;5095311;28;20456;-59
2022/06/05 07:06:53;;;;;;;0.40;0.30;;;;;;;26.91;96.99;95440.19;5095782;28;20439;-58
2022/06/05 07:09:22;;;;;;;1.27;1.00;;;;;;;26.77;94.16;95422.88;5095526;28;20456;-59
2022/06/05 07:11:53;;;;;;;10.00;0.60;;;;;;;26.93;96.54;95439.78;5095717;28;20440;-60
2022/06/05 07:14:26;;;;;;;1.00;1.00;;;;;;;27.24;93.28;95428.50;5095736;28;20425;-60
2022/06/05 07:16:57;;;;;;;1.17;1.07;;;;;;;26.92;98.06;95419.97;5095992;28;20783;-60
2022/06/05 07:19:27;;;;;;;0.43;0.43;;;;;;;26.95;93.49;95383.88;5095615;28;20529;-59
2022/06/05 07:21:56;;;;;;;3.17;1.20;;;;;;;27.95;87.00;95419.09;5095782;28;20440;-60
2022/06/05 07:24:24;;;;;;;2.40;0.87;;;;;;;27.81;86.21;95412.72;5095547;28;20424;-60
2022/06/05 07:26:55;;;;;;;3.13;1.23;;;;;;;27.85;85.49;95414.34;5095790;28;20866;-62
2022/06/05 07:29:23;;;;;;;0.50;0.40;;;;;;;27.79;85.82;95412.31;5095569;28;20474;-61
2022/06/05 07:31:52;;;;;;;8.10;0.80;;;;;;;27.80;87.59;95354.75;5094949;28;20432;-62
2022/06/05 07:34:21;;;;;;;0.60;0.60;;;;;;;28.02;90.86;95407.47;5095304;28;20426;-64
2022/06/05 07:36:50;;;;;;;1.10;0.90;;;;;;;28.36;88.45;95408.13;5095471;28;20408;-65
2022/06/05 07:39:18;;;;;;;0.53;0.53;;;;;;;28.69;85.46;95400.50;5094718;28;20514;-65
2022/06/05 07:41:46;;;;;;;9.00;1.20;;;;;;;28.48;81.59;95386.75;5094854;28;20481;-67
2022/06/05 07:44:17;;;;;;;3.30;1.23;;;;;;;28.49;79.74;95366.50;5094801;28;20463;-68
2022/06/05 07:46:45;;;;;;;0.93;0.93;;;;;;;29.01;82.59;95380.75;5094614;28;20451;-69
2022/06/05 07:49:14;;;;;;;0.83;0.83;;;;;;;28.68;78.72;95371.69;5095071;28;20853;-72
2022/06/05 07:54:29;;;;;;;0.83;0.63;;;;;;;28.51;79.86;95364.19;5094919;28;20473;-74
2022/06/05 07:57:00;;;;;;;0.70;0.40;;;;;;;28.80;79.37;95378.75;5095447;28;20507;-74
2022/06/05 07:59:32;;;;;;;0.50;0.50;;;;;;;29.53;75.67;95358.28;5095009;28;20460;-75
2022/06/05 08:02:03;;;;;;;0.40;0.40;;;;;;;29.99;72.07;95350.88;5095212;28;20798;-75
2022/06/05 08:04:34;;;;;;;0.80;0.73;;;;;;;30.57;69.79;95355.06;5095130;28;20477;-75
2022/06/05 08:07:07;;;;;;;0.77;0.70;;;;;;;30.55;72.89;95360.16;5093862;28;20416;-74
2022/06/05 08:09:36;;;;;;;0.50;0.50;;;;;;;30.35;69.56;95359.03;5094554;28;20975;-74
2022/06/05 08:12:05;;;;;;;0.60;0.50;;;;;;;30.34;71.74;95360.19;5094476;28;20994;-73
2022/06/05 08:14:35;;;;;;;0.70;0.47;;;;;;;30.61;69.75;95351.13;5094935;28;20852;-72
2022/06/05 08:17:05;;;;;;;0.77;0.77;;;;;;;30.68;70.60;95287.41;5094700;28;20447;-72
2022/06/05 08:19:38;;;;;;;0.97;0.97;;;;;;;30.36;65.37;95278.56;5094223;28;20463;-71
2022/06/05 08:22:06;;;;;;;1.00;1.00;;;;;;;31.30;62.73;95337.50;5094218;28;20424;-69
2022/06/05 08:24:35;;;;;;;0.67;0.40;;;;;;;31.25;66.22;95340.69;5094228;28;20459;-69
2022/06/05 08:27:09;;;;;;;0.50;0.50;;;;;;;31.84;65.44;95337.91;5094039;28;20435;-69
2022/06/05 08:29:39;;;;;;;0.50;0.50;;;;;;;31.93;63.84;95308.84;5094881;28;20479;-68
2022/06/05 08:32:08;;;;;;;0.40;0.40;;;;;;;31.92;64.96;95314.75;5094412;28;20434;-67
2022/06/05 08:34:37;;;;;;;0.70;0.50;;;;;;;31.42;61.11;95328.06;5094204;28;20420;-67
2022/06/05 08:42:56;;;;;;;0.70;0.40;;;;;;;32.19;60.26;95323.13;5094063;28;20512;-67
2022/06/05 08:45:37;;;;;;;0.50;0.50;;;;;;;32.27;61.29;95333.63;5094142;28;20416;-66
2022/06/05 08:48:11;;;;;;;0.70;0.63;;;;;;;32.51;58.96;95335.31;5093942;28;20519;-65
2022/06/05 08:50:44;;;;;;;7.50;1.00;;;;;;;32.77;57.82;95336.59;5093870;28;20847;-65
2022/06/05 08:53:22;;;;;;;0.80;0.80;;;;;;;33.29;58.65;95328.09;5093672;28;20455;-65
2022/06/05 08:55:54;;;;;;;1.53;0.50;;;;;;;33.13;52.01;95323.19;5093953;28;20450;-64
2022/06/05 08:58:30;;;;;;;0.93;0.47;;;;;;;33.44;60.41;95277.22;5093556;28;20498;-62
2022/06/05 09:01:04;;;;;;;1.27;0.40;;;;;;;33.48;57.87;95317.19;5093590;28;20961;-66
2022/06/05 09:03:39;;;;;;;0.63;0.60;;;;;;;32.67;57.90;95306.53;5094164;28;20420;-64
2022/06/05 09:06:15;;;;;;;0.90;0.90;;;;;;;32.26;60.03;95268.97;5093437;28;20427;-66
2022/06/05 09:08:46;;;;;;;0.50;0.50;;;;;;;32.23;56.85;95280.75;5093360;28;20447;-66
2022/06/05 09:11:25;;;;;;;0.60;0.60;;;;;;;31.86;64.52;95308.91;5093757;28;20493;-66
2022/06/05 09:14:04;;;;;;;0.40;0.40;;;;;;;31.67;62.78;95305.97;5093759;28;20499;-67
2022/06/05 09:16:39;;;;;;;0.73;0.73;;;;;;;31.84;66.47;95308.56;5092998;28;20477;-67
2022/06/05 09:19:08;;;;;;;0.50;0.50;;;;;;;31.93;62.08;95310.81;5093104;28;20537;-66
2022/06/05 09:21:42;;;;;;;2.83;0.90;;;;;;;31.96;62.93;95301.78;5093260;28;20412;-66
2022/06/05 09:24:17;;;;;;;0.50;0.50;;;;;;;32.82;59.18;95303.19;5093693;28;20447;-66
2022/06/05 09:26:51;;;;;;;0.50;0.50;;;;;;;33.46;50.74;95300.34;5093057;28;21075;-66
2022/06/05 09:29:30;;;;;;;0.40;0.30;;;;;;;33.30;51.47;95294.69;5091747;28;20463;-66
2022/06/05 09:32:38;;;;;;;2.80;0.63;;;;;;;33.52;56.54;95300.66;5092838;28;20416;-65
2022/06/05 09:35:20;;;;;;;0.50;0.50;;;;;;;33.65;50.05;95285.91;5052348;28;20493;-64
2022/06/05 09:37:53;;;;;;;0.47;0.47;;;;;;;34.04;49.14;95281.69;5092576;28;20459;-63
2022/06/05 09:40:29;;;;;;;0.40;0.40;;;;;;;33.65;49.76;95285.16;5092684;28;20550;-63
2022/06/05 09:43:21;;;;;;;1.23;1.23;;;;;;;33.01;47.24;95277.84;5092352;28;20880;-64
2022/06/05 09:46:09;;;;;;;0.50;0.40;;;;;;;34.05;50.07;95275.81;5092842;28;20416;-64
2022/06/05 09:48:49;;;;;;;0.87;0.87;;;;;;;33.92;45.25;95274.06;5092337;28;20901;-63
2022/06/05 09:51:19;;;;;;;0.50;0.50;;;;;;;34.63;49.57;95260.53;5092574;28;20424;-64
2022/06/05 09:53:57;;;;;;;0.40;0.40;;;;;;;35.32;43.49;95258.63;5092433;28;20467;-63
2022/06/05 09:59:39;;;;;;;0.40;0.30;;;;;;;34.89;43.22;95264.31;5092036;28;20588;-63
2022/06/05 10:02:09;;;;;;;0.70;0.40;;;;;;;34.79;41.21;95255.06;5092627;28;20824;-64
2022/06/05 10:04:39;;;;;;;0.40;0.40;;;;;;;34.73;38.99;95256.78;5090612;28;20190;-62
2022/06/05 10:07:32;;;;;;;1.13;0.93;;;;;;;35.19;36.48;95255.78;5091758;28;20641;-63
2022/06/05 10:10:06;;;;;;;1.03;0.93;;;;;;;34.99;41.05;95255.03;5092300;28;20242;-63
2022/06/05 10:12:44;;;;;;;1.07;1.07;;;;;;;34.88;38.76;95249.75;5091175;28;20265;-63
2022/06/05 10:15:23;;;;;;;1.07;1.07;;;;;;;34.14;38.11;95182.50;5091345;28;20279;-66
2022/06/05 10:17:53;;;;;;;0.57;0.57;;;;;;;35.46;42.16;95244.50;5091686;28;20236;-63
2022/06/05 10:20:41;;;;;;;0.40;0.40;;;;;;;35.69;38.01;95244.34;5091786;28;20246;-64
2022/06/05 10:23:20;;;;;;;0.57;0.50;;;;;;;36.71;37.94;95241.53;5091705;28;20314;-62
2022/06/05 10:25:57;;;;;;;1.33;1.30;;;;;;;36.03;36.32;95238.34;5092250;28;20237;-64
2022/06/05 10:28:27;;;;;;;1.20;1.20;;;;;;;34.25;37.85;95231.81;5091304;28;20223;-62
2022/06/05 10:30:59;;;;;;;1.40;1.30;;;;;;;34.16;39.02;95243.38;5091549;28;20232;-63
2022/06/05 10:33:44;;;;;;;0.40;0.30;;;;;;;35.55;39.28;95234.44;5091951;28;20191;-63
2022/06/05 10:36:23;;;;;;;1.23;1.13;;;;;;;35.97;35.07;95216.00;5091817;28;20192;-61
2022/06/05 10:39:01;;;;;;;0.40;0.40;;;;;;;36.84;34.83;95224.97;5093748;28;20197;-63
2022/06/05 10:41:37;;;;;;;0.55;0.55;;;;;;;36.05;35.14;95222.16;5104407;28;20214;-65
2022/06/05 10:44:18;;;;;;;0.47;0.40;;;;;;;36.67;36.41;95209.72;5099061;28;20731;-65
2022/06/05 10:47:02;;;;;;;0.70;0.50;;;;;;;36.21;35.40;95192.50;5111041;28;20229;-63
2022/06/05 10:49:42;;;;;;;0.67;0.63;;;;;;;35.87;33.65;95205.25;5099641;28;20201;-63
2022/06/05 10:52:20;;;;;;;0.60;0.47;;;;;;;35.79;33.39;95204.69;5099570;28;20195;-63
2022/06/05 10:54:55;;;;;;;0.70;0.43;;;;;;;36.00;34.30;95203.38;5091358;28;20222;-63
2022/06/05 10:57:30;;;;;;;1.30;1.30;;;;;;;36.65;33.45;95192.81;5096767;28;20189;-63
2022/06/05 11:00:03;;;;;;;3.22;0.60;;;;;;;36.38;31.36;95182.16;5090507;28;20241;-63
2022/06/05 11:02:44;;;;;;;0.60;0.40;;;;;;;36.88;33.02;95192.50;5089843;28;20233;-63
2022/06/05 11:05:27;;;;;;;0.47;0.47;;;;;;;36.88;32.84;95186.97;5091512;28;20223;-64
2022/06/05 11:08:08;;;;;;;0.40;0.32;;;;;;;36.68;30.83;95175.38;5109306;28;20209;-64
2022/06/05 11:13:44;;;;;;;0.52;0.52;;;;;;;37.40;33.54;95184.53;5094288;28;20237;-62
2022/06/05 11:16:28;;;;;;;0.98;0.60;;;;;;;37.01;29.51;95182.25;5091133;28;20182;-62
2022/06/05 11:19:09;;;;;;;1.40;0.40;;;;;;;38.14;27.34;95176.44;5090833;28;20193;-62
2022/06/05 11:21:42;;;;;;;0.40;0.40;;;;;;;38.09;26.63;95165.19;5095561;28;20249;-62
2022/06/05 11:24:20;;;;;;;0.50;0.45;;;;;;;38.47;26.67;95174.06;5093497;28;20195;-63
2022/06/05 11:27:01;;;;;;;0.70;0.70;;;;;;;36.72;27.79;95176.81;5090724;28;20185;-63
2022/06/05 11:29:35;;;;;;;0.60;0.60;;;;;;;37.13;27.73;95173.19;5091868;28;20225;-63
2022/06/05 11:32:28;;;;;;;1.02;0.35;;;;;;;38.12;27.28;95164.28;5093064;28;20194;-63
2022/06/05 11:35:18;;;;;;;0.75;0.50;;;;;;;38.61;31.50;95158.88;5104618;28;20647;-63
2022/06/05 11:37:56;;;;;;;1.95;0.77;;;;;;;38.72;30.93;95153.72;5090571;28;20186;-63
2022/06/05 11:40:34;;;;;;;0.50;0.40;;;;;;;37.87;29.96;95151.34;5091667;28;20242;-63
2022/06/05 11:43:19;;;;;;;3.13;0.88;;;;;;;38.11;30.47;95148.88;5094078;28;20657;-63
2022/06/05 11:45:54;;;;;;;0.40;0.40;;;;;;;38.22;31.13;95146.50;5094011;28;20191;-63
2022/06/05 11:48:30;;;;;;;2.15;0.50;;;;;;;37.94;30.00;95137.25;5094477;28;20216;-63
2022/06/05 11:51:05;;;;;;;3.30;0.40;;;;;;;37.56;29.19;95133.06;5094293;28;20240;-63
2022/06/05 11:53:42;;;;;;;0.75;0.38;;;;;;;37.65;28.92;95147.75;5093898;28;20243;-64
2022/06/05 11:56:26;;;;;;;1.00;0.75;;;;;;;37.25;28.44;95136.44;5093821;28;20618;-64
2022/06/05 11:59:00;;;;;;;0.47;0.47;;;;;;;37.57;27.56;95096.69;5093896;28;20319;-64
2022/06/05 12:01:32;;;;;;;0.50;0.40;;;;;;;36.53;27.39;95130.09;5093564;28;20304;-64
2022/06/05 12:04:11;;;;;;;2.05;1.00;;;;;;;37.96;27.52;95123.72;5093792;28;20641;-64
2022/06/05 12:06:46;;;;;;;0.43;0.40;;;;;;;37.95;27.68;95127.72;5094045;28;20217;-63
2022/06/05 12:09:18;;;;;;;0.50;0.50;;;;;;;38.88;26.53;95120.25;5094010;28;20641;-63
2022/06/05 12:11:54;;;;;;;0.30;0.30;;;;;;;38.87;27.26;95115.94;5093557;28;20637;-64
2022/06/05 12:14:27;;;;;;;0.40;0.30;;;;;;;38.06;27.74;95113.47;5093879;28;20213;-64
2022/06/05 12:17:07;;;;;;;0.50;0.50;;;;;;;38.17;27.66;95113.09;5093434;28;20225;-64
2022/06/05 12:19:45;;;;;;;3.60;0.50;;;;;;;37.03;27.99;95113.50;5093477;28;20186;-65